sensor_id;sensor_type;location;lat;lon;timestamp;P1;durP1;ratioP1;P2;durP2;ratioP2
577;SDS011;275;48.492;9.214;2024-03-23T00:55:17;4.65;;;4.15;;
577;SDS011;275;48.492;9.214;2024-03-23T00:57:44;6.35;;;4.95;;
577;SDS011;275;48.492;9.214;2024-03-23T01:00:10;5.00;;;3.67;;
577;SDS011;275;48.492;9.214;2024-03-23T01:02:37;5.85;;;4.47;;
577;SDS011;275;48.492;9.214;2024-03-23T01:05:03;6.50;;;4.47;;
577;SDS011;275;48.492;9.214;2024-03-23T01:07:30;6.03;;;5.43;;
577;SDS011;275;48.492;9.214;2024-03-23T01:09:57;7.63;;;5.50;;
577;SDS011;275;48.492;9.214;2024-03-23T01:12:24;8.90;;;6.40;;
577;SDS011;275;48.492;9.214;2024-03-23T01:14:50;6.77;;;6.10;;
577;SDS011;275;48.492;9.214;2024-03-23T01:17:17;7.10;;;6.35;;
577;SDS011;275;48.492;9.214;2024-03-23T01:19:43;7.37;;;6.10;;
577;SDS011;275;48.492;9.214;2024-03-23T01:22:09;8.77;;;6.13;;
577;SDS011;275;48.492;9.214;2024-03-23T01:24:35;7.47;;;6.00;;
577;SDS011;275;48.492;9.214;2024-03-23T01:27:04;7.47;;;6.63;;
577;SDS011;275;48.492;9.214;2024-03-23T01:29:30;7.10;;;6.28;;
577;SDS011;275;48.492;9.214;2024-03-23T01:31:56;8.00;;;7.20;;
577;SDS011;275;48.492;9.214;2024-03-23T01:34:22;7.50;;;6.20;;
577;SDS011;275;48.492;9.214;2024-03-23T01:36:50;6.05;;;5.45;;
577;SDS011;275;48.492;9.214;2024-03-23T01:39:15;8.77;;;6.10;;
577;SDS011;275;48.492;9.214;2024-03-23T01:41:42;7.00;;;4.80;;
577;SDS011;275;48.492;9.214;2024-03-23T01:44:10;5.43;;;4.33;;
577;SDS011;275;48.492;9.214;2024-03-23T01:46:37;7.05;;;4.40;;
577;SDS011;275;48.492;9.214;2024-03-23T01:49:03;4.97;;;4.00;;
577;SDS011;275;48.492;9.214;2024-03-23T01:51:31;6.88;;;3.72;;
577;SDS011;275;48.492;9.214;2024-03-23T01:53:58;5.95;;;3.90;;
577;SDS011;275;48.492;9.214;2024-03-23T01:56:28;5.15;;;3.70;;
577;SDS011;275;48.492;9.214;2024-03-23T01:58:55;4.20;;;3.58;;
577;SDS011;275;48.492;9.214;2024-03-23T02:01:23;4.57;;;3.40;;
577;SDS011;275;48.492;9.214;2024-03-23T02:03:49;5.00;;;3.30;;
577;SDS011;275;48.492;9.214;2024-03-23T02:06:15;5.45;;;4.50;;
577;SDS011;275;48.492;9.214;2024-03-23T02:08:41;4.60;;;3.00;;
577;SDS011;275;48.492;9.214;2024-03-23T02:11:10;4.40;;;2.87;;
577;SDS011;275;48.492;9.214;2024-03-23T02:13:35;6.57;;;3.00;;
577;SDS011;275;48.492;9.214;2024-03-23T02:16:02;4.73;;;2.70;;
577;SDS011;275;48.492;9.214;2024-03-23T02:18:31;4.53;;;2.27;;
577;SDS011;275;48.492;9.214;2024-03-23T02:20:58;3.83;;;2.43;;
577;SDS011;275;48.492;9.214;2024-03-23T02:23:25;3.90;;;2.33;;
577;SDS011;275;48.492;9.214;2024-03-23T02:25:52;5.77;;;2.20;;
577;SDS011;275;48.492;9.214;2024-03-23T02:28:18;3.50;;;2.20;;
577;SDS011;275;48.492;9.214;2024-03-23T02:30:45;5.30;;;2.00;;
577;SDS011;275;48.492;9.214;2024-03-23T02:33:11;5.37;;;2.17;;
577;SDS011;275;48.492;9.214;2024-03-23T02:35:38;5.67;;;2.60;;
577;SDS011;275;48.492;9.214;2024-03-23T02:38:03;4.37;;;2.17;;
577;SDS011;275;48.492;9.214;2024-03-23T02:40:32;4.77;;;2.33;;
577;SDS011;275;48.492;9.214;2024-03-23T02:42:57;3.90;;;2.13;;
577;SDS011;275;48.492;9.214;2024-03-23T02:45:24;4.37;;;2.70;;
577;SDS011;275;48.492;9.214;2024-03-23T02:47:50;3.60;;;2.20;;
577;SDS011;275;48.492;9.214;2024-03-23T02:50:17;4.20;;;2.33;;
577;SDS011;275;48.492;9.214;2024-03-23T02:52:43;4.17;;;2.37;;
577;SDS011;275;48.492;9.214;2024-03-23T02:55:10;4.57;;;2.80;;
577;SDS011;275;48.492;9.214;2024-03-23T02:57:37;4.57;;;2.40;;
577;SDS011;275;48.492;9.214;2024-03-23T03:00:04;4.53;;;2.40;;
577;SDS011;275;48.492;9.214;2024-03-23T03:02:32;5.43;;;2.77;;
577;SDS011;275;48.492;9.214;2024-03-23T03:04:59;4.97;;;2.57;;
577;SDS011;275;48.492;9.214;2024-03-23T03:07:25;4.37;;;2.47;;
577;SDS011;275;48.492;9.214;2024-03-23T03:09:51;6.33;;;3.93;;
577;SDS011;275;48.492;9.214;2024-03-23T03:12:17;7.83;;;3.60;;
577;SDS011;275;48.492;9.214;2024-03-23T03:14:45;5.10;;;3.80;;
577;SDS011;275;48.492;9.214;2024-03-23T03:17:11;5.50;;;4.13;;
577;SDS011;275;48.492;9.214;2024-03-23T03:19:38;4.40;;;3.40;;
577;SDS011;275;48.492;9.214;2024-03-23T03:22:04;4.90;;;4.17;;
577;SDS011;275;48.492;9.214;2024-03-23T03:24:31;4.23;;;3.23;;
577;SDS011;275;48.492;9.214;2024-03-23T03:26:56;5.57;;;2.83;;
577;SDS011;275;48.492;9.214;2024-03-23T03:29:23;5.13;;;3.00;;
577;SDS011;275;48.492;9.214;2024-03-23T03:31:51;3.90;;;2.70;;
577;SDS011;275;48.492;9.214;2024-03-23T03:34:17;4.27;;;2.50;;
577;SDS011;275;48.492;9.214;2024-03-23T03:36:43;4.03;;;2.50;;
577;SDS011;275;48.492;9.214;2024-03-23T03:39:10;4.93;;;2.70;;
577;SDS011;275;48.492;9.214;2024-03-23T03:41:36;3.27;;;2.33;;
577;SDS011;275;48.492;9.214;2024-03-23T03:44:02;6.00;;;2.83;;
577;SDS011;275;48.492;9.214;2024-03-23T03:46:28;4.17;;;2.90;;
577;SDS011;275;48.492;9.214;2024-03-23T03:48:57;3.90;;;2.40;;
577;SDS011;275;48.492;9.214;2024-03-23T03:51:22;4.37;;;3.10;;
577;SDS011;275;48.492;9.214;2024-03-23T03:53:49;6.30;;;3.13;;
577;SDS011;275;48.492;9.214;2024-03-23T03:56:15;5.20;;;2.50;;
577;SDS011;275;48.492;9.214;2024-03-23T03:58:42;4.23;;;3.27;;
577;SDS011;275;48.492;9.214;2024-03-23T04:01:08;6.43;;;3.33;;
577;SDS011;275;48.492;9.214;2024-03-23T04:03:35;4.80;;;2.83;;
577;SDS011;275;48.492;9.214;2024-03-23T04:06:02;3.90;;;2.93;;
577;SDS011;275;48.492;9.214;2024-03-23T04:08:29;4.40;;;2.83;;
577;SDS011;275;48.492;9.214;2024-03-23T04:10:55;5.33;;;3.00;;
577;SDS011;275;48.492;9.214;2024-03-23T04:13:22;5.00;;;2.70;;
577;SDS011;275;48.492;9.214;2024-03-23T04:15:48;3.50;;;2.67;;
577;SDS011;275;48.492;9.214;2024-03-23T04:18:14;3.40;;;2.67;;
577;SDS011;275;48.492;9.214;2024-03-23T04:20:40;3.80;;;3.00;;
577;SDS011;275;48.492;9.214;2024-03-23T04:23:09;5.10;;;3.00;;
577;SDS011;275;48.492;9.214;2024-03-23T04:25:35;4.67;;;2.90;;
577;SDS011;275;48.492;9.214;2024-03-23T04:28:01;4.47;;;2.57;;
577;SDS011;275;48.492;9.214;2024-03-23T04:30:27;4.27;;;3.00;;
577;SDS011;275;48.492;9.214;2024-03-23T04:32:55;6.00;;;3.10;;
577;SDS011;275;48.492;9.214;2024-03-23T04:35:22;4.20;;;2.97;;
577;SDS011;275;48.492;9.214;2024-03-23T04:37:50;5.03;;;2.93;;
577;SDS011;275;48.492;9.214;2024-03-23T04:40:19;4.43;;;2.73;;
577;SDS011;275;48.492;9.214;2024-03-23T04:42:46;4.40;;;2.70;;
577;SDS011;275;48.492;9.214;2024-03-23T04:45:12;3.60;;;2.47;;
577;SDS011;275;48.492;9.214;2024-03-23T04:47:40;5.30;;;2.80;;
577;SDS011;275;48.492;9.214;2024-03-23T04:50:06;4.30;;;2.63;;
577;SDS011;275;48.492;9.214;2024-03-23T04:52:35;6.17;;;2.77;;
577;SDS011;275;48.492;9.214;2024-03-23T04:55:02;4.07;;;2.80;;
577;SDS011;275;48.492;9.214;2024-03-23T04:57:31;4.60;;;2.67;;
577;SDS011;275;48.492;9.214;2024-03-23T04:59:58;5.40;;;3.47;;
577;SDS011;275;48.492;9.214;2024-03-23T05:02:23;4.30;;;2.70;;
577;SDS011;275;48.492;9.214;2024-03-23T05:04:52;4.47;;;2.63;;
577;SDS011;275;48.492;9.214;2024-03-23T05:07:18;7.10;;;3.20;;
577;SDS011;275;48.492;9.214;2024-03-23T05:09:44;4.00;;;2.97;;
577;SDS011;275;48.492;9.214;2024-03-23T05:12:10;5.97;;;2.53;;
577;SDS011;275;48.492;9.214;2024-03-23T05:14:38;4.17;;;2.90;;
577;SDS011;275;48.492;9.214;2024-03-23T05:17:04;3.63;;;2.60;;
577;SDS011;275;48.492;9.214;2024-03-23T05:19:31;4.23;;;2.70;;
577;SDS011;275;48.492;9.214;2024-03-23T05:21:57;5.57;;;3.60;;
577;SDS011;275;48.492;9.214;2024-03-23T05:24:24;4.00;;;2.30;;
577;SDS011;275;48.492;9.214;2024-03-23T05:26:50;7.10;;;3.33;;
577;SDS011;275;48.492;9.214;2024-03-23T05:29:17;4.07;;;2.67;;
577;SDS011;275;48.492;9.214;2024-03-23T05:31:44;4.53;;;3.27;;
577;SDS011;275;48.492;9.214;2024-03-23T05:34:16;4.83;;;3.50;;
577;SDS011;275;48.492;9.214;2024-03-23T05:36:42;4.50;;;3.63;;
577;SDS011;275;48.492;9.214;2024-03-23T05:39:09;6.00;;;3.90;;
577;SDS011;275;48.492;9.214;2024-03-23T05:41:35;4.67;;;4.17;;
577;SDS011;275;48.492;9.214;2024-03-23T05:44:02;6.47;;;5.50;;
577;SDS011;275;48.492;9.214;2024-03-23T05:46:28;6.90;;;6.30;;
577;SDS011;275;48.492;9.214;2024-03-23T05:48:56;8.40;;;6.82;;
577;SDS011;275;48.492;9.214;2024-03-23T05:51:27;8.65;;;7.85;;
577;SDS011;275;48.492;9.214;2024-03-23T05:53:53;9.85;;;8.85;;
577;SDS011;275;48.492;9.214;2024-03-23T05:56:19;9.40;;;8.50;;
577;SDS011;275;48.492;9.214;2024-03-23T05:58:46;10.65;;;9.65;;
577;SDS011;275;48.492;9.214;2024-03-23T06:01:13;10.43;;;9.43;;
577;SDS011;275;48.492;9.214;2024-03-23T06:03:40;9.15;;;8.25;;
577;SDS011;275;48.492;9.214;2024-03-23T06:06:07;9.40;;;8.40;;
577;SDS011;275;48.492;9.214;2024-03-23T06:08:36;9.32;;;8.43;;
577;SDS011;275;48.492;9.214;2024-03-23T06:11:02;8.60;;;7.60;;
577;SDS011;275;48.492;9.214;2024-03-23T06:13:31;9.00;;;8.20;;
577;SDS011;275;48.492;9.214;2024-03-23T06:15:56;9.70;;;8.00;;
577;SDS011;275;48.492;9.214;2024-03-23T06:18:23;9.07;;;8.27;;
577;SDS011;275;48.492;9.214;2024-03-23T06:20:49;9.47;;;8.57;;
577;SDS011;275;48.492;9.214;2024-03-23T06:23:17;9.70;;;7.65;;
577;SDS011;275;48.492;9.214;2024-03-23T06:25:45;8.85;;;8.00;;
577;SDS011;275;48.492;9.214;2024-03-23T06:28:12;7.65;;;6.95;;
577;SDS011;275;48.492;9.214;2024-03-23T06:30:37;7.10;;;6.40;;
577;SDS011;275;48.492;9.214;2024-03-23T06:33:04;6.90;;;6.20;;
577;SDS011;275;48.492;9.214;2024-03-23T06:35:30;6.70;;;6.00;;
577;SDS011;275;48.492;9.214;2024-03-23T06:37:57;6.25;;;5.65;;
577;SDS011;275;48.492;9.214;2024-03-23T06:40:24;4.80;;;4.30;;
577;SDS011;275;48.492;9.214;2024-03-23T06:42:51;6.05;;;4.72;;
577;SDS011;275;48.492;9.214;2024-03-23T06:45:17;6.10;;;3.30;;
577;SDS011;275;48.492;9.214;2024-03-23T06:47:48;3.90;;;2.97;;
577;SDS011;275;48.492;9.214;2024-03-23T06:50:14;4.75;;;2.88;;
577;SDS011;275;48.492;9.214;2024-03-23T06:52:41;4.10;;;3.70;;
577;SDS011;275;48.492;9.214;2024-03-23T06:55:07;3.70;;;2.63;;
577;SDS011;275;48.492;9.214;2024-03-23T06:57:36;4.25;;;3.20;;
577;SDS011;275;48.492;9.214;2024-03-23T07:00:02;3.45;;;2.45;;
577;SDS011;275;48.492;9.214;2024-03-23T07:02:29;2.88;;;1.92;;
577;SDS011;275;48.492;9.214;2024-03-23T07:04:55;3.90;;;2.70;;
577;SDS011;275;48.492;9.214;2024-03-23T07:07:22;3.05;;;2.05;;
577;SDS011;275;48.492;9.214;2024-03-23T07:09:48;2.80;;;1.70;;
577;SDS011;275;48.492;9.214;2024-03-23T07:12:14;2.88;;;1.55;;
577;SDS011;275;48.492;9.214;2024-03-23T07:14:41;2.47;;;1.23;;
577;SDS011;275;48.492;9.214;2024-03-23T07:17:08;3.22;;;1.50;;
577;SDS011;275;48.492;9.214;2024-03-23T07:19:34;2.80;;;1.60;;
577;SDS011;275;48.492;9.214;2024-03-23T07:22:01;3.30;;;1.58;;
577;SDS011;275;48.492;9.214;2024-03-23T07:24:27;2.60;;;1.50;;
577;SDS011;275;48.492;9.214;2024-03-23T07:26:55;2.60;;;1.50;;
577;SDS011;275;48.492;9.214;2024-03-23T07:29:23;2.55;;;1.50;;
577;SDS011;275;48.492;9.214;2024-03-23T07:31:51;2.50;;;1.40;;
577;SDS011;275;48.492;9.214;2024-03-23T07:34:17;3.30;;;1.25;;
577;SDS011;275;48.492;9.214;2024-03-23T07:36:43;2.88;;;1.30;;
577;SDS011;275;48.492;9.214;2024-03-23T07:39:09;2.77;;;1.70;;
577;SDS011;275;48.492;9.214;2024-03-23T07:41:36;3.85;;;1.63;;
577;SDS011;275;48.492;9.214;2024-03-23T07:44:02;2.70;;;1.40;;
577;SDS011;275;48.492;9.214;2024-03-23T07:46:29;2.50;;;1.10;;
577;SDS011;275;48.492;9.214;2024-03-23T07:48:57;2.42;;;1.42;;
577;SDS011;275;48.492;9.214;2024-03-23T07:51:24;2.95;;;1.55;;
577;SDS011;275;48.492;9.214;2024-03-23T07:53:50;3.20;;;1.15;;
577;SDS011;275;48.492;9.214;2024-03-23T07:56:17;3.80;;;1.00;;
577;SDS011;275;48.492;9.214;2024-03-23T07:58:44;2.30;;;1.13;;
577;SDS011;275;48.492;9.214;2024-03-23T08:01:12;2.50;;;1.27;;
577;SDS011;275;48.492;9.214;2024-03-23T08:03:39;2.55;;;1.52;;
577;SDS011;275;48.492;9.214;2024-03-23T08:06:09;3.40;;;1.23;;
577;SDS011;275;48.492;9.214;2024-03-23T08:08:36;2.40;;;1.10;;
577;SDS011;275;48.492;9.214;2024-03-23T08:11:03;2.33;;;1.02;;
577;SDS011;275;48.492;9.214;2024-03-23T08:13:29;2.22;;;1.00;;
577;SDS011;275;48.492;9.214;2024-03-23T08:15:57;2.15;;;0.93;;
577;SDS011;275;48.492;9.214;2024-03-23T08:18:23;2.75;;;0.90;;
577;SDS011;275;48.492;9.214;2024-03-23T08:20:56;2.10;;;0.80;;
577;SDS011;275;48.492;9.214;2024-03-23T08:23:24;2.40;;;1.10;;
577;SDS011;275;48.492;9.214;2024-03-23T08:25:51;2.13;;;0.90;;
577;SDS011;275;48.492;9.214;2024-03-23T08:28:17;2.50;;;1.27;;
577;SDS011;275;48.492;9.214;2024-03-23T08:30:44;2.38;;;1.05;;
577;SDS011;275;48.492;9.214;2024-03-23T08:33:09;2.50;;;1.03;;
577;SDS011;275;48.492;9.214;2024-03-23T08:35:36;3.08;;;1.50;;
577;SDS011;275;48.492;9.214;2024-03-23T08:38:03;2.70;;;1.00;;
577;SDS011;275;48.492;9.214;2024-03-23T08:40:31;2.65;;;1.00;;
577;SDS011;275;48.492;9.214;2024-03-23T08:42:57;2.90;;;1.15;;
577;SDS011;275;48.492;9.214;2024-03-23T08:45:24;2.60;;;1.60;;
577;SDS011;275;48.492;9.214;2024-03-23T08:47:50;2.70;;;1.52;;
577;SDS011;275;48.492;9.214;2024-03-23T08:50:17;4.72;;;1.60;;
577;SDS011;275;48.492;9.214;2024-03-23T08:52:43;3.37;;;1.77;;
577;SDS011;275;48.492;9.214;2024-03-23T08:55:10;4.38;;;2.47;;
577;SDS011;275;48.492;9.214;2024-03-23T08:57:38;4.50;;;2.45;;
577;SDS011;275;48.492;9.214;2024-03-23T09:00:04;4.65;;;2.50;;
577;SDS011;275;48.492;9.214;2024-03-23T09:02:33;4.88;;;3.08;;
577;SDS011;275;48.492;9.214;2024-03-23T09:04:59;4.97;;;2.63;;
577;SDS011;275;48.492;9.214;2024-03-23T09:07:29;3.25;;;2.08;;
577;SDS011;275;48.492;9.214;2024-03-23T09:09:55;3.58;;;2.47;;
577;SDS011;275;48.492;9.214;2024-03-23T09:12:22;4.13;;;2.65;;
577;SDS011;275;48.492;9.214;2024-03-23T09:14:50;6.43;;;3.10;;
577;SDS011;275;48.492;9.214;2024-03-23T09:17:17;6.65;;;3.33;;
577;SDS011;275;48.492;9.214;2024-03-23T09:19:43;8.30;;;3.33;;
577;SDS011;275;48.492;9.214;2024-03-23T09:22:10;5.63;;;3.50;;
577;SDS011;275;48.492;9.214;2024-03-23T09:24:35;6.43;;;3.77;;
577;SDS011;275;48.492;9.214;2024-03-23T09:27:03;5.88;;;3.65;;
577;SDS011;275;48.492;9.214;2024-03-23T09:29:29;8.98;;;3.50;;
577;SDS011;275;48.492;9.214;2024-03-23T09:31:57;4.70;;;3.65;;
577;SDS011;275;48.492;9.214;2024-03-23T09:34:23;4.80;;;3.70;;
577;SDS011;275;48.492;9.214;2024-03-23T09:36:50;9.55;;;4.68;;
577;SDS011;275;48.492;9.214;2024-03-23T09:39:16;7.60;;;4.55;;
577;SDS011;275;48.492;9.214;2024-03-23T09:41:43;6.20;;;4.70;;
577;SDS011;275;48.492;9.214;2024-03-23T09:44:09;7.77;;;4.93;;
577;SDS011;275;48.492;9.214;2024-03-23T09:46:36;9.73;;;4.90;;
577;SDS011;275;48.492;9.214;2024-03-23T09:49:05;7.22;;;4.25;;
577;SDS011;275;48.492;9.214;2024-03-23T09:51:35;7.07;;;3.95;;
577;SDS011;275;48.492;9.214;2024-03-23T09:54:01;7.10;;;3.60;;
577;SDS011;275;48.492;9.214;2024-03-23T09:56:28;5.80;;;3.43;;
577;SDS011;275;48.492;9.214;2024-03-23T09:58:59;5.33;;;2.90;;
577;SDS011;275;48.492;9.214;2024-03-23T10:01:28;6.47;;;3.43;;
577;SDS011;275;48.492;9.214;2024-03-23T10:03:55;7.50;;;3.70;;
577;SDS011;275;48.492;9.214;2024-03-23T10:06:23;9.40;;;3.33;;
577;SDS011;275;48.492;9.214;2024-03-23T10:08:49;4.93;;;2.70;;
577;SDS011;275;48.492;9.214;2024-03-23T10:11:17;5.27;;;3.07;;
577;SDS011;275;48.492;9.214;2024-03-23T10:13:44;7.27;;;3.40;;
577;SDS011;275;48.492;9.214;2024-03-23T10:16:12;8.00;;;4.03;;
577;SDS011;275;48.492;9.214;2024-03-23T10:18:47;7.43;;;3.80;;
577;SDS011;275;48.492;9.214;2024-03-23T10:21:14;6.70;;;4.00;;
577;SDS011;275;48.492;9.214;2024-03-23T10:23:42;7.33;;;3.80;;
577;SDS011;275;48.492;9.214;2024-03-23T10:28:55;5.90;;;3.73;;
577;SDS011;275;48.492;9.214;2024-03-23T10:31:26;8.60;;;4.23;;
577;SDS011;275;48.492;9.214;2024-03-23T10:33:52;7.53;;;3.80;;
577;SDS011;275;48.492;9.214;2024-03-23T10:36:20;7.20;;;3.40;;
577;SDS011;275;48.492;9.214;2024-03-23T10:38:47;8.00;;;4.00;;
577;SDS011;275;48.492;9.214;2024-03-23T10:41:15;6.23;;;3.63;;
577;SDS011;275;48.492;9.214;2024-03-23T10:43:42;8.43;;;3.80;;
577;SDS011;275;48.492;9.214;2024-03-23T10:46:11;10.57;;;4.30;;
577;SDS011;275;48.492;9.214;2024-03-23T10:48:36;6.67;;;3.80;;
577;SDS011;275;48.492;9.214;2024-03-23T10:51:04;7.00;;;4.80;;
577;SDS011;275;48.492;9.214;2024-03-23T10:53:32;8.10;;;4.40;;
577;SDS011;275;48.492;9.214;2024-03-23T10:56:01;8.57;;;4.10;;
577;SDS011;275;48.492;9.214;2024-03-23T11:00:57;13.10;;;5.20;;
577;SDS011;275;48.492;9.214;2024-03-23T11:03:29;5.93;;;3.90;;
577;SDS011;275;48.492;9.214;2024-03-23T11:06:01;6.73;;;4.53;;
577;SDS011;275;48.492;9.214;2024-03-23T11:08:34;6.33;;;3.40;;
577;SDS011;275;48.492;9.214;2024-03-23T11:11:13;5.70;;;3.00;;
577;SDS011;275;48.492;9.214;2024-03-23T11:13:43;7.65;;;3.10;;
577;SDS011;275;48.492;9.214;2024-03-23T11:16:16;6.55;;;3.30;;
577;SDS011;275;48.492;9.214;2024-03-23T11:18:43;5.50;;;3.70;;
577;SDS011;275;48.492;9.214;2024-03-23T11:21:10;6.50;;;3.40;;
577;SDS011;275;48.492;9.214;2024-03-23T11:26:42;5.22;;;3.22;;
577;SDS011;275;48.492;9.214;2024-03-23T11:29:10;6.13;;;3.67;;
577;SDS011;275;48.492;9.214;2024-03-23T11:31:38;5.82;;;2.95;;
577;SDS011;275;48.492;9.214;2024-03-23T11:34:10;5.97;;;3.58;;
577;SDS011;275;48.492;9.214;2024-03-23T11:36:37;5.05;;;3.65;;
577;SDS011;275;48.492;9.214;2024-03-23T11:39:11;9.53;;;3.10;;
577;SDS011;275;48.492;9.214;2024-03-23T11:41:46;5.90;;;2.55;;
577;SDS011;275;48.492;9.214;2024-03-23T11:44:16;9.00;;;3.65;;
577;SDS011;275;48.492;9.214;2024-03-23T11:46:44;8.07;;;3.88;;
577;SDS011;275;48.492;9.214;2024-03-23T11:49:19;5.97;;;3.03;;
577;SDS011;275;48.492;9.214;2024-03-23T11:51:48;7.07;;;2.65;;
577;SDS011;275;48.492;9.214;2024-03-23T11:54:14;7.32;;;2.90;;
577;SDS011;275;48.492;9.214;2024-03-23T11:56:55;8.82;;;3.35;;
577;SDS011;275;48.492;9.214;2024-03-23T11:59:31;5.15;;;3.03;;
577;SDS011;275;48.492;9.214;2024-03-23T12:01:59;7.78;;;3.67;;
577;SDS011;275;48.492;9.214;2024-03-23T12:04:26;8.30;;;4.03;;
577;SDS011;275;48.492;9.214;2024-03-23T12:07:08;5.93;;;3.45;;
577;SDS011;275;48.492;9.214;2024-03-23T12:09:37;6.15;;;4.43;;
577;SDS011;275;48.492;9.214;2024-03-23T12:12:10;7.32;;;4.10;;
577;SDS011;275;48.492;9.214;2024-03-23T12:14:40;10.25;;;3.85;;
577;SDS011;275;48.492;9.214;2024-03-23T12:17:07;6.18;;;3.63;;
577;SDS011;275;48.492;9.214;2024-03-23T12:19:37;7.45;;;3.65;;
577;SDS011;275;48.492;9.214;2024-03-23T12:22:04;7.95;;;3.83;;
577;SDS011;275;48.492;9.214;2024-03-23T12:24:31;5.07;;;2.90;;
577;SDS011;275;48.492;9.214;2024-03-23T12:26:59;7.78;;;3.75;;
577;SDS011;275;48.492;9.214;2024-03-23T12:29:28;5.13;;;3.10;;
577;SDS011;275;48.492;9.214;2024-03-23T12:31:56;7.78;;;3.15;;
577;SDS011;275;48.492;9.214;2024-03-23T12:34:24;5.05;;;3.08;;
577;SDS011;275;48.492;9.214;2024-03-23T12:36:51;7.78;;;3.05;;
577;SDS011;275;48.492;9.214;2024-03-23T12:39:16;5.73;;;2.80;;
577;SDS011;275;48.492;9.214;2024-03-23T12:41:44;7.68;;;3.40;;
577;SDS011;275;48.492;9.214;2024-03-23T12:44:10;7.23;;;3.37;;
577;SDS011;275;48.492;9.214;2024-03-23T12:46:40;6.22;;;3.05;;
577;SDS011;275;48.492;9.214;2024-03-23T12:49:06;6.32;;;3.42;;
577;SDS011;275;48.492;9.214;2024-03-23T12:51:33;4.95;;;3.28;;
577;SDS011;275;48.492;9.214;2024-03-23T12:53:58;6.10;;;2.30;;
577;SDS011;275;48.492;9.214;2024-03-23T12:56:25;4.17;;;2.53;;
577;SDS011;275;48.492;9.214;2024-03-23T12:58:53;8.33;;;2.40;;
577;SDS011;275;48.492;9.214;2024-03-23T13:01:22;6.43;;;2.37;;
577;SDS011;275;48.492;9.214;2024-03-23T13:03:49;5.30;;;2.60;;
577;SDS011;275;48.492;9.214;2024-03-23T13:06:16;4.13;;;2.37;;
577;SDS011;275;48.492;9.214;2024-03-23T13:08:43;4.85;;;2.30;;
577;SDS011;275;48.492;9.214;2024-03-23T13:11:10;5.43;;;1.93;;
577;SDS011;275;48.492;9.214;2024-03-23T13:13:37;6.30;;;2.60;;
577;SDS011;275;48.492;9.214;2024-03-23T13:16:04;4.53;;;2.80;;
577;SDS011;275;48.492;9.214;2024-03-23T13:18:30;3.60;;;2.00;;
577;SDS011;275;48.492;9.214;2024-03-23T13:20:59;6.23;;;2.43;;
577;SDS011;275;48.492;9.214;2024-03-23T13:23:25;6.77;;;3.70;;
577;SDS011;275;48.492;9.214;2024-03-23T13:25:52;5.47;;;2.50;;
577;SDS011;275;48.492;9.214;2024-03-23T13:28:19;5.87;;;2.10;;
577;SDS011;275;48.492;9.214;2024-03-23T13:30:52;4.20;;;1.80;;
577;SDS011;275;48.492;9.214;2024-03-23T13:33:18;5.63;;;2.00;;
577;SDS011;275;48.492;9.214;2024-03-23T13:35:54;5.13;;;2.60;;
577;SDS011;275;48.492;9.214;2024-03-23T13:38:22;5.90;;;2.43;;
577;SDS011;275;48.492;9.214;2024-03-23T13:40:50;4.77;;;2.60;;
577;SDS011;275;48.492;9.214;2024-03-23T13:43:20;5.13;;;2.00;;
577;SDS011;275;48.492;9.214;2024-03-23T13:45:47;5.77;;;2.77;;
577;SDS011;275;48.492;9.214;2024-03-23T13:48:15;6.60;;;2.63;;
577;SDS011;275;48.492;9.214;2024-03-23T13:50:41;6.22;;;2.70;;
577;SDS011;275;48.492;9.214;2024-03-23T13:53:08;6.68;;;2.15;;
577;SDS011;275;48.492;9.214;2024-03-23T13:55:35;8.57;;;2.50;;
577;SDS011;275;48.492;9.214;2024-03-23T13:58:02;5.70;;;3.03;;
577;SDS011;275;48.492;9.214;2024-03-23T14:00:29;7.22;;;2.90;;
577;SDS011;275;48.492;9.214;2024-03-23T14:02:57;5.72;;;2.67;;
577;SDS011;275;48.492;9.214;2024-03-23T14:05:23;5.40;;;2.50;;
577;SDS011;275;48.492;9.214;2024-03-23T14:07:50;4.10;;;2.22;;
577;SDS011;275;48.492;9.214;2024-03-23T14:10:16;5.33;;;2.20;;
577;SDS011;275;48.492;9.214;2024-03-23T14:12:44;4.38;;;2.30;;
577;SDS011;275;48.492;9.214;2024-03-23T14:15:10;4.38;;;2.10;;
577;SDS011;275;48.492;9.214;2024-03-23T14:17:37;4.93;;;1.98;;
577;SDS011;275;48.492;9.214;2024-03-23T14:20:04;4.78;;;1.60;;
577;SDS011;275;48.492;9.214;2024-03-23T14:22:34;4.72;;;1.90;;
577;SDS011;275;48.492;9.214;2024-03-23T14:25:00;4.43;;;1.80;;
577;SDS011;275;48.492;9.214;2024-03-23T14:27:26;3.35;;;1.70;;
577;SDS011;275;48.492;9.214;2024-03-23T14:29:54;3.90;;;1.87;;
577;SDS011;275;48.492;9.214;2024-03-23T14:32:21;5.07;;;1.95;;
577;SDS011;275;48.492;9.214;2024-03-23T14:34:47;4.40;;;1.70;;
577;SDS011;275;48.492;9.214;2024-03-23T14:37:14;4.70;;;1.70;;
577;SDS011;275;48.492;9.214;2024-03-23T14:39:40;4.65;;;1.85;;
577;SDS011;275;48.492;9.214;2024-03-23T14:42:09;3.88;;;1.55;;
577;SDS011;275;48.492;9.214;2024-03-23T14:44:35;3.30;;;1.50;;
577;SDS011;275;48.492;9.214;2024-03-23T14:47:03;4.55;;;2.20;;
577;SDS011;275;48.492;9.214;2024-03-23T14:49:29;5.05;;;1.88;;
577;SDS011;275;48.492;9.214;2024-03-23T14:51:56;4.22;;;2.05;;
577;SDS011;275;48.492;9.214;2024-03-23T14:54:22;5.40;;;1.80;;
577;SDS011;275;48.492;9.214;2024-03-23T14:56:49;3.97;;;1.95;;
577;SDS011;275;48.492;9.214;2024-03-23T14:59:15;6.93;;;2.20;;
577;SDS011;275;48.492;9.214;2024-03-23T15:01:42;4.40;;;2.05;;
577;SDS011;275;48.492;9.214;2024-03-23T15:04:09;4.70;;;2.30;;
577;SDS011;275;48.492;9.214;2024-03-23T15:06:36;5.32;;;2.13;;
577;SDS011;275;48.492;9.214;2024-03-23T15:09:02;3.55;;;1.88;;
577;SDS011;275;48.492;9.214;2024-03-23T15:11:32;2.90;;;1.10;;
577;SDS011;275;48.492;9.214;2024-03-23T15:14:01;2.80;;;1.73;;
577;SDS011;275;48.492;9.214;2024-03-23T15:16:28;3.42;;;1.30;;
577;SDS011;275;48.492;9.214;2024-03-23T15:18:54;3.83;;;1.70;;
577;SDS011;275;48.492;9.214;2024-03-23T15:21:22;3.78;;;1.85;;
577;SDS011;275;48.492;9.214;2024-03-23T15:23:48;4.13;;;1.42;;
577;SDS011;275;48.492;9.214;2024-03-23T15:26:15;2.50;;;1.40;;
577;SDS011;275;48.492;9.214;2024-03-23T15:28:41;3.75;;;1.55;;
577;SDS011;275;48.492;9.214;2024-03-23T15:31:28;5.80;;;1.90;;
577;SDS011;275;48.492;9.214;2024-03-23T15:33:54;3.15;;;2.00;;
577;SDS011;275;48.492;9.214;2024-03-23T15:36:22;3.63;;;1.92;;
577;SDS011;275;48.492;9.214;2024-03-23T15:38:48;3.60;;;2.42;;
577;SDS011;275;48.492;9.214;2024-03-23T15:41:15;2.80;;;1.73;;
577;SDS011;275;48.492;9.214;2024-03-23T15:43:41;6.60;;;2.30;;
577;SDS011;275;48.492;9.214;2024-03-23T15:46:07;4.28;;;2.47;;
577;SDS011;275;48.492;9.214;2024-03-23T15:48:35;7.50;;;2.85;;
577;SDS011;275;48.492;9.214;2024-03-23T15:51:03;5.55;;;2.20;;
577;SDS011;275;48.492;9.214;2024-03-23T15:53:30;4.63;;;2.00;;
577;SDS011;275;48.492;9.214;2024-03-23T15:55:57;4.63;;;2.10;;
577;SDS011;275;48.492;9.214;2024-03-23T15:58:24;3.97;;;2.00;;
577;SDS011;275;48.492;9.214;2024-03-23T16:00:55;3.55;;;2.25;;
577;SDS011;275;48.492;9.214;2024-03-23T16:03:21;3.47;;;1.63;;
577;SDS011;275;48.492;9.214;2024-03-23T16:05:51;4.32;;;1.70;;
577;SDS011;275;48.492;9.214;2024-03-23T16:08:17;3.25;;;1.77;;
577;SDS011;275;48.492;9.214;2024-03-23T16:10:45;5.28;;;2.30;;
577;SDS011;275;48.492;9.214;2024-03-23T16:13:11;3.13;;;1.88;;
577;SDS011;275;48.492;9.214;2024-03-23T16:15:37;9.05;;;6.28;;
577;SDS011;275;48.492;9.214;2024-03-23T16:18:03;4.20;;;2.20;;
577;SDS011;275;48.492;9.214;2024-03-23T16:20:31;5.13;;;2.30;;
577;SDS011;275;48.492;9.214;2024-03-23T16:22:58;4.50;;;1.95;;
577;SDS011;275;48.492;9.214;2024-03-23T16:25:25;4.05;;;1.80;;
577;SDS011;275;48.492;9.214;2024-03-23T16:27:52;5.00;;;1.63;;
577;SDS011;275;48.492;9.214;2024-03-23T16:30:20;3.45;;;1.80;;
577;SDS011;275;48.492;9.214;2024-03-23T16:32:46;4.00;;;1.77;;
577;SDS011;275;48.492;9.214;2024-03-23T16:35:13;6.18;;;2.30;;
577;SDS011;275;48.492;9.214;2024-03-23T16:37:39;8.00;;;1.98;;
577;SDS011;275;48.492;9.214;2024-03-23T16:40:07;4.32;;;2.00;;
577;SDS011;275;48.492;9.214;2024-03-23T16:42:34;4.75;;;2.00;;
577;SDS011;275;48.492;9.214;2024-03-23T16:45:03;3.10;;;1.80;;
577;SDS011;275;48.492;9.214;2024-03-23T16:47:29;3.28;;;1.52;;